Keeline, Wyoming
Current Conditions -  °F | °C
As of 5:53 PM on Tuesday 21 Oct 2014 (Local Time) from KDGW Reporting Station
Few Clouds Few Clouds  
Wind Chill: 68°   Ceiling: Unl
Heat Index: 68°   Visibility: 10mi
Dew Point: 36°   Wind: 12mph
Humidity: 31%   Direction: 230°SW
Pressure: 29.87"   Gusts: NA
Location:  42.8195°N, 104.764°W
Report Text: KDGW 212353Z AUTO 23010KT 10SM FEW120 20/02 A2987 RMK AO2 SLP078 T02000022 10250 20200 53004
Loading
Personal Weather Stations






























Interactive Weather Map
Tropical Storm Tracking
New forecast layout! Learn more

10-Day Weather Forecast

Advertisements
Track Severe Weather on mobile